Time;durP1;ratioP1;P1;durP2;ratioP2;P2;SDS_P1;SDS_P2;PMS_P1;PMS_P2;Temp;Humidity;BMP_temperature;BMP_pressure;BME280_temperature;BME280_humidity;BME280_pressure;Samples;Min_cycle;Max_cycle;Signal;HPM_P1;HPM_P2
2021/09/24 00:02:03;;;;;;;3.00;1.13;;;22.00;55.30;;;;;;4993930;28;20034;-62
2021/09/24 00:04:30;;;;;;;3.08;1.17;;;22.00;55.30;;;;;;4993995;28;20026;-62
2021/09/24 00:06:56;;;;;;;2.20;1.20;;;22.00;55.30;;;;;;4993891;28;20034;-62
2021/09/24 00:09:21;;;;;;;2.50;1.02;;;22.00;55.30;;;;;;4993501;28;20018;-62
2021/09/24 00:11:47;;;;;;;3.42;1.40;;;22.00;55.30;;;;;;4993845;28;20034;-62
2021/09/24 00:14:13;;;;;;;2.50;1.17;;;22.00;55.30;;;;;;4993981;28;20026;-62
2021/09/24 00:16:38;;;;;;;3.90;1.60;;;21.90;55.30;;;;;;4993760;28;20470;-61
2021/09/24 00:19:04;;;;;;;2.40;1.17;;;22.00;55.30;;;;;;4993827;28;20589;-62
2021/09/24 00:21:30;;;;;;;2.75;1.20;;;21.90;55.40;;;;;;4993687;28;20018;-62
2021/09/24 00:23:56;;;;;;;3.05;1.30;;;21.90;55.30;;;;;;4993641;28;20045;-62
2021/09/24 00:26:21;;;;;;;3.10;1.38;;;22.00;55.40;;;;;;4993924;28;20042;-62
2021/09/24 00:28:47;;;;;;;3.13;1.30;;;21.90;55.40;;;;;;4993639;28;20505;-61
2021/09/24 00:31:12;;;;;;;4.03;1.30;;;21.90;55.40;;;;;;4993612;28;20026;-62
2021/09/24 00:33:38;;;;;;;3.60;1.70;;;21.90;55.40;;;;;;4993633;28;20030;-62
2021/09/24 00:36:04;;;;;;;2.47;1.20;;;21.90;55.40;;;;;;4993488;28;20026;-62
2021/09/24 00:38:29;;;;;;;3.30;1.23;;;21.90;55.40;;;;;;4993812;28;20108;-62
2021/09/24 00:40:55;;;;;;;2.83;1.30;;;21.90;55.40;;;;;;4993502;28;20019;-62
2021/09/24 00:43:20;;;;;;;2.28;1.15;;;21.90;55.40;;;;;;4993444;28;20042;-62
2021/09/24 00:45:46;;;;;;;4.38;1.30;;;21.90;55.40;;;;;;5008599;28;20018;-62
2021/09/24 00:48:12;;;;;;;3.08;1.33;;;21.90;55.50;;;;;;4991982;28;20053;-62
2021/09/24 00:50:38;;;;;;;3.05;1.20;;;21.90;55.50;;;;;;4993427;28;20031;-62
2021/09/24 00:53:04;;;;;;;2.75;1.15;;;21.90;55.50;;;;;;4993429;28;20028;-62
2021/09/24 00:55:31;;;;;;;2.63;1.23;;;21.90;55.50;;;;;;4993402;28;20027;-62
2021/09/24 00:57:57;;;;;;;4.60;1.52;;;21.80;55.50;;;;;;4993419;28;20030;-62
2021/09/24 01:00:23;;;;;;;3.45;1.30;;;21.80;55.50;;;;;;4993293;28;20038;-62
2021/09/24 01:02:48;;;;;;;4.55;1.65;;;21.80;55.50;;;;;;4993221;28;20402;-62
2021/09/24 01:05:15;;;;;;;3.33;1.40;;;21.80;55.50;;;;;;4993234;28;20038;-62
2021/09/24 01:07:44;;;;;;;3.15;1.20;;;21.80;55.50;;;;;;4993257;28;20113;-62
2021/09/24 01:10:11;;;;;;;3.25;1.23;;;21.80;55.50;;;;;;4993207;28;20041;-62
2021/09/24 01:12:37;;;;;;;3.80;1.10;;;21.80;55.50;;;;;;4993386;28;20117;-63
2021/09/24 01:15:09;;;;;;;3.30;1.30;;;21.80;55.50;;;;;;4993502;28;20065;-62
2021/09/24 01:17:35;;;;;;;3.72;1.20;;;21.80;55.60;;;;;;4993151;28;20023;-62
2021/09/24 01:20:01;;;;;;;2.85;1.20;;;21.80;55.50;;;;;;4993587;28;20031;-62
2021/09/24 01:22:27;;;;;;;3.15;1.30;;;21.80;55.60;;;;;;4996852;28;20034;-62
2021/09/24 01:24:52;;;;;;;3.83;1.48;;;21.80;55.60;;;;;;4995626;28;20031;-62
2021/09/24 01:27:18;;;;;;;2.38;1.20;;;21.80;55.60;;;;;;4996831;28;20022;-62
2021/09/24 01:29:49;;;;;;;2.40;1.20;;;21.80;55.60;;;;;;4996803;28;20038;-62
2021/09/24 01:32:15;;;;;;;2.50;1.30;;;21.80;55.60;;;;;;4996741;28;20030;-62
2021/09/24 01:34:40;;;;;;;2.95;1.40;;;21.80;55.60;;;;;;4996684;28;20106;-62
2021/09/24 01:37:06;;;;;;;3.50;1.17;;;21.80;55.60;;;;;;4996637;28;20031;-62
2021/09/24 01:39:31;;;;;;;3.88;1.30;;;21.80;55.60;;;;;;4996764;28;20386;-62
2021/09/24 01:41:57;;;;;;;3.08;1.40;;;21.80;55.70;;;;;;4996564;28;20026;-63
2021/09/24 01:44:22;;;;;;;2.30;1.15;;;21.80;55.60;;;;;;4996674;28;20121;-62
2021/09/24 01:46:48;;;;;;;7.53;1.42;;;21.80;55.70;;;;;;4996675;28;20064;-61
2021/09/24 01:49:14;;;;;;;3.10;1.40;;;21.70;55.70;;;;;;4996312;28;20054;-62
2021/09/24 01:51:43;;;;;;;3.25;1.52;;;21.80;55.70;;;;;;4996411;28;20033;-61
2021/09/24 01:54:10;;;;;;;4.03;1.08;;;21.80;55.70;;;;;;4996393;28;20030;-62
2021/09/24 01:56:36;;;;;;;2.38;1.27;;;21.80;55.70;;;;;;4996317;28;20037;-62
2021/09/24 01:59:02;;;;;;;3.38;1.30;;;21.80;55.80;;;;;;5011345;28;20019;-62
2021/09/24 02:01:27;;;;;;;2.38;1.15;;;21.80;55.80;;;;;;4996195;28;20031;-61
2021/09/24 02:03:53;;;;;;;3.45;1.20;;;21.80;55.70;;;;;;4996261;28;20042;-63
2021/09/24 02:06:18;;;;;;;2.40;1.23;;;21.70;55.70;;;;;;4996358;28;20220;-62
2021/09/24 02:08:44;;;;;;;4.22;1.17;;;21.80;55.70;;;;;;4996129;28;20036;-61
2021/09/24 02:11:11;;;;;;;4.05;1.23;;;21.70;55.70;;;;;;4996014;28;20022;-62
2021/09/24 02:13:38;;;;;;;2.90;1.15;;;21.70;55.70;;;;;;4996249;28;20038;-62
2021/09/24 02:16:04;;;;;;;2.60;1.23;;;21.70;55.70;;;;;;4995981;28;20041;-63
2021/09/24 02:18:29;;;;;;;2.72;1.23;;;21.70;55.70;;;;;;4995936;28;20023;-61
2021/09/24 02:20:55;;;;;;;2.50;0.95;;;21.70;55.80;;;;;;4995879;28;20477;-62
2021/09/24 02:23:21;;;;;;;2.85;1.10;;;21.70;55.80;;;;;;4995657;28;20038;-62
2021/09/24 02:25:47;;;;;;;2.85;1.45;;;21.70;55.90;;;;;;4995853;28;20049;-62
2021/09/24 02:28:12;;;;;;;3.25;1.30;;;21.70;55.80;;;;;;4995762;28;20061;-62
2021/09/24 02:30:38;;;;;;;2.92;1.15;;;21.70;55.80;;;;;;4995601;28;20034;-63
2021/09/24 02:33:04;;;;;;;2.88;1.20;;;21.70;55.80;;;;;;5010828;28;20078;-62
2021/09/24 02:35:29;;;;;;;4.47;1.27;;;21.70;55.80;;;;;;4994348;28;20426;-62
2021/09/24 02:37:55;;;;;;;2.45;1.00;;;21.70;55.80;;;;;;4995557;28;20061;-63
2021/09/24 02:40:20;;;;;;;3.25;1.35;;;21.70;55.80;;;;;;4995477;28;20112;-62
2021/09/24 02:42:47;;;;;;;3.70;1.30;;;21.70;55.80;;;;;;4995423;28;20474;-62
2021/09/24 02:45:12;;;;;;;2.08;0.98;;;21.70;55.90;;;;;;4995458;28;20037;-62
2021/09/24 02:47:38;;;;;;;2.80;1.23;;;21.70;55.90;;;;;;5010351;28;20034;-62
2021/09/24 02:50:06;;;;;;;3.67;1.35;;;21.70;55.90;;;;;;4995553;28;20041;-62
2021/09/24 02:52:31;;;;;;;3.85;0.90;;;21.70;55.90;;;;;;4995278;28;20026;-62
2021/09/24 02:54:57;;;;;;;3.17;1.30;;;21.70;55.90;;;;;;4995239;28;20101;-61
2021/09/24 02:57:22;;;;;;;4.22;1.25;;;21.70;55.90;;;;;;4995127;28;20113;-62
2021/09/24 02:59:48;;;;;;;3.85;1.38;;;21.70;55.90;;;;;;4995358;28;20034;-62
2021/09/24 03:02:13;;;;;;;2.85;1.20;;;21.70;55.90;;;;;;4993740;28;20036;-63
2021/09/24 03:04:39;;;;;;;2.60;1.23;;;21.60;55.90;;;;;;4995012;28;20052;-62
2021/09/24 03:07:05;;;;;;;3.03;1.30;;;21.70;56.00;;;;;;4994972;28;20141;-62
2021/09/24 03:09:30;;;;;;;2.63;1.00;;;21.60;56.00;;;;;;4995230;28;20023;-62
2021/09/24 03:11:56;;;;;;;3.00;1.25;;;21.70;55.90;;;;;;4994941;28;20026;-62
2021/09/24 03:14:21;;;;;;;2.53;1.17;;;21.70;56.00;;;;;;4995045;28;20034;-62
2021/09/24 03:16:47;;;;;;;3.22;1.40;;;21.70;56.00;;;;;;4993559;28;20023;-61
2021/09/24 03:19:18;;;;;;;2.15;1.10;;;21.70;56.00;;;;;;4995021;28;20030;-61
2021/09/24 03:21:43;;;;;;;2.80;1.33;;;21.60;56.00;;;;;;4994832;28;20023;-63
2021/09/24 03:24:09;;;;;;;2.63;1.20;;;21.70;56.00;;;;;;4994640;28;20500;-63
2021/09/24 03:26:35;;;;;;;2.88;1.00;;;21.70;56.00;;;;;;4994655;28;20022;-64
2021/09/24 03:29:02;;;;;;;2.45;1.25;;;21.70;56.00;;;;;;4994485;28;20027;-63
2021/09/24 03:31:27;;;;;;;3.10;1.13;;;21.70;56.00;;;;;;4994792;28;20022;-62
2021/09/24 03:33:53;;;;;;;2.53;0.90;;;21.60;56.00;;;;;;4994660;28;20141;-63
2021/09/24 03:36:18;;;;;;;2.15;1.10;;;21.60;56.00;;;;;;4994451;28;20040;-63
2021/09/24 03:38:44;;;;;;;2.50;1.20;;;21.70;56.10;;;;;;4994335;28;20026;-63
2021/09/24 03:41:09;;;;;;;3.08;1.10;;;21.70;56.10;;;;;;4994384;28;20034;-63
2021/09/24 03:43:35;;;;;;;3.17;1.30;;;21.70;56.00;;;;;;4993593;28;20066;-63
2021/09/24 03:46:01;;;;;;;2.60;1.00;;;21.60;56.10;;;;;;4994301;28;20069;-63
2021/09/24 03:48:26;;;;;;;3.70;1.27;;;21.60;56.10;;;;;;5009179;28;20043;-63
2021/09/24 03:50:52;;;;;;;3.42;1.25;;;21.60;56.10;;;;;;4994215;28;20027;-63
2021/09/24 03:53:17;;;;;;;2.38;1.02;;;21.60;56.10;;;;;;4994257;28;20050;-63
2021/09/24 03:55:43;;;;;;;2.95;1.05;;;21.70;56.10;;;;;;4994094;28;20029;-63
2021/09/24 03:58:08;;;;;;;1.90;0.90;;;21.60;56.10;;;;;;4994014;28;20030;-64
2021/09/24 04:00:34;;;;;;;3.45;1.20;;;21.60;56.10;;;;;;4994058;28;20031;-63
2021/09/24 04:02:59;;;;;;;3.88;1.20;;;21.60;56.10;;;;;;5009035;28;20049;-64
2021/09/24 04:05:25;;;;;;;2.53;0.98;;;21.60;56.10;;;;;;4994009;28;20030;-63
2021/09/24 04:07:51;;;;;;;2.78;1.15;;;21.60;56.10;;;;;;4993946;28;20026;-63
2021/09/24 04:10:16;;;;;;;2.00;1.02;;;21.60;56.20;;;;;;4993911;28;20030;-64
2021/09/24 04:12:42;;;;;;;4.20;1.38;;;21.60;56.20;;;;;;4993736;28;20023;-64
2021/09/24 04:15:08;;;;;;;3.05;1.35;;;21.60;56.10;;;;;;4993793;28;20019;-63
2021/09/24 04:17:33;;;;;;;2.95;1.20;;;21.60;56.10;;;;;;4992697;28;20032;-63
2021/09/24 04:19:59;;;;;;;3.55;1.10;;;21.60;56.10;;;;;;4993765;28;20381;-63
2021/09/24 04:22:24;;;;;;;3.30;1.40;;;21.60;56.10;;;;;;4993927;28;20030;-63
2021/09/24 04:24:50;;;;;;;2.35;1.23;;;21.60;56.10;;;;;;4993689;28;20052;-63
2021/09/24 04:27:16;;;;;;;2.92;1.30;;;21.70;56.10;;;;;;4993657;28;20033;-63
2021/09/24 04:29:41;;;;;;;2.65;0.90;;;21.70;56.10;;;;;;4993640;28;20120;-63
2021/09/24 04:32:07;;;;;;;2.13;1.08;;;21.70;56.10;;;;;;4993580;28;20041;-63
2021/09/24 04:34:33;;;;;;;2.47;1.30;;;21.60;56.10;;;;;;4993618;28;20022;-63
2021/09/24 04:36:58;;;;;;;3.35;1.30;;;21.70;56.10;;;;;;4993768;28;20102;-63
2021/09/24 04:39:24;;;;;;;2.78;1.20;;;21.70;56.10;;;;;;4993524;28;20386;-63
2021/09/24 04:41:50;;;;;;;4.32;1.40;;;21.70;56.10;;;;;;4993456;28;20038;-63
2021/09/24 04:44:15;;;;;;;1.63;0.82;;;21.70;56.10;;;;;;4993494;28;20474;-63
2021/09/24 04:46:45;;;;;;;3.15;1.27;;;21.70;56.10;;;;;;4993433;28;20037;-64
2021/09/24 04:49:11;;;;;;;2.70;1.38;;;21.70;56.10;;;;;;4993325;28;20498;-63
2021/09/24 04:51:36;;;;;;;2.20;1.20;;;21.70;56.10;;;;;;4993349;28;20101;-63
2021/09/24 04:54:02;;;;;;;3.45;1.10;;;21.70;56.20;;;;;;4992437;28;20117;-63
2021/09/24 04:56:27;;;;;;;3.35;1.20;;;21.70;56.20;;;;;;4997443;28;20077;-63
2021/09/24 04:58:53;;;;;;;3.17;1.23;;;21.70;56.10;;;;;;4997363;28;20030;-63
2021/09/24 05:01:18;;;;;;;3.85;1.40;;;21.70;56.10;;;;;;4997295;28;20030;-63
2021/09/24 05:03:44;;;;;;;3.00;1.25;;;21.70;56.20;;;;;;4997217;28;20038;-62
2021/09/24 05:06:09;;;;;;;3.13;1.05;;;21.70;56.10;;;;;;4997291;28;20106;-63
2021/09/24 05:08:35;;;;;;;2.50;1.02;;;21.80;56.20;;;;;;4997221;28;20121;-63
2021/09/24 05:11:00;;;;;;;3.10;1.30;;;21.70;56.20;;;;;;4997019;28;20019;-62
2021/09/24 05:13:26;;;;;;;2.35;1.05;;;21.70;56.20;;;;;;5012227;28;20029;-63
2021/09/24 05:15:51;;;;;;;1.75;0.85;;;21.80;56.20;;;;;;4997122;28;20351;-63
2021/09/24 05:18:17;;;;;;;2.40;1.20;;;21.70;56.20;;;;;;4997015;28;20029;-63
2021/09/24 05:20:43;;;;;;;2.85;1.23;;;21.80;56.20;;;;;;4995667;28;20027;-63
2021/09/24 05:23:08;;;;;;;2.78;1.13;;;21.70;56.20;;;;;;4996883;28;20114;-63
2021/09/24 05:25:34;;;;;;;2.13;1.00;;;21.80;56.20;;;;;;4996753;28;20481;-63
2021/09/24 05:27:59;;;;;;;2.63;1.13;;;21.80;56.20;;;;;;4996826;28;20096;-63
2021/09/24 05:30:25;;;;;;;2.67;1.00;;;21.80;56.20;;;;;;4996768;28;20034;-63
2021/09/24 05:32:50;;;;;;;2.08;1.05;;;21.80;56.20;;;;;;4996758;28;20026;-63
2021/09/24 05:35:16;;;;;;;2.22;1.00;;;21.80;56.20;;;;;;4996750;28;20040;-63
2021/09/24 05:37:43;;;;;;;2.88;1.48;;;21.80;56.20;;;;;;4996709;28;20026;-63
2021/09/24 05:40:09;;;;;;;3.47;1.33;;;21.80;56.20;;;;;;4996632;28;20022;-63
2021/09/24 05:42:35;;;;;;;3.20;1.40;;;21.80;56.20;;;;;;4996486;28;20023;-63
2021/09/24 05:45:01;;;;;;;2.67;1.20;;;21.80;56.20;;;;;;4995357;28;20027;-63
2021/09/24 05:47:26;;;;;;;2.22;1.05;;;21.80;56.20;;;;;;4996339;28;20422;-63
2021/09/24 05:49:52;;;;;;;2.03;1.05;;;21.80;56.20;;;;;;4995133;28;20045;-63
2021/09/24 05:52:17;;;;;;;2.25;1.10;;;21.80;56.20;;;;;;4996403;28;20041;-63
2021/09/24 05:54:43;;;;;;;3.08;1.40;;;21.90;56.20;;;;;;4996211;28;20032;-64
2021/09/24 05:57:08;;;;;;;2.70;1.10;;;21.90;56.20;;;;;;4996544;28;20061;-63
2021/09/24 05:59:34;;;;;;;3.70;1.30;;;21.90;56.20;;;;;;4996325;28;20112;-62
2021/09/24 06:02:00;;;;;;;3.05;1.20;;;21.90;56.20;;;;;;4996224;28;20026;-63
2021/09/24 06:04:25;;;;;;;3.00;1.40;;;21.90;56.30;;;;;;4996262;28;20034;-61
2021/09/24 06:06:51;;;;;;;2.55;1.30;;;21.90;56.20;;;;;;5010642;28;20022;-63
2021/09/24 06:09:16;;;;;;;2.88;1.23;;;21.90;56.30;;;;;;4996147;28;20109;-63
2021/09/24 06:11:43;;;;;;;3.10;1.30;;;21.90;56.30;;;;;;4996370;28;20117;-63
2021/09/24 06:14:09;;;;;;;3.28;1.38;;;21.90;56.20;;;;;;4996256;28;20033;-63
2021/09/24 06:16:35;;;;;;;4.20;1.40;;;21.90;56.30;;;;;;4995995;28;20073;-63
2021/09/24 06:19:00;;;;;;;3.47;1.40;;;21.90;56.30;;;;;;4995909;28;20026;-63
2021/09/24 06:21:26;;;;;;;4.00;1.40;;;21.90;56.30;;;;;;4996050;28;20033;-63
2021/09/24 06:23:52;;;;;;;3.83;1.48;;;21.90;56.30;;;;;;4995632;28;20038;-65
2021/09/24 06:26:18;;;;;;;4.05;1.27;;;21.90;56.30;;;;;;4995812;28;20038;-63
2021/09/24 06:28:44;;;;;;;3.17;1.50;;;21.90;56.30;;;;;;4995696;28;20023;-64
2021/09/24 06:31:10;;;;;;;2.95;1.42;;;21.90;56.30;;;;;;4995990;28;20042;-63
2021/09/24 06:33:35;;;;;;;3.58;1.55;;;21.90;56.30;;;;;;4995557;28;20107;-63
2021/09/24 06:36:01;;;;;;;3.03;1.60;;;21.90;56.30;;;;;;4995525;28;20064;-63
2021/09/24 06:38:27;;;;;;;3.50;1.58;;;21.90;56.30;;;;;;4995662;28;20073;-63
2021/09/24 06:40:52;;;;;;;6.22;1.85;;;21.90;56.30;;;;;;4995147;28;20030;-63
2021/09/24 06:43:18;;;;;;;6.13;1.50;;;22.00;56.30;;;;;;4995269;28;20053;-62
2021/09/24 06:45:44;;;;;;;4.28;1.63;;;22.00;56.30;;;;;;4995406;28;20061;-63
2021/09/24 06:48:10;;;;;;;2.65;1.40;;;21.90;56.30;;;;;;4995244;28;20491;-63
2021/09/24 06:50:37;;;;;;;5.32;2.08;;;22.00;56.30;;;;;;4995242;28;20493;-63
2021/09/24 06:53:03;;;;;;;3.97;1.70;;;22.00;56.30;;;;;;4995125;28;20030;-63
2021/09/24 06:55:29;;;;;;;4.20;1.60;;;21.90;56.30;;;;;;4995260;28;20466;-63
2021/09/24 06:57:56;;;;;;;4.05;1.77;;;22.00;56.30;;;;;;4995128;28;20497;-63
2021/09/24 07:00:22;;;;;;;3.40;1.65;;;22.00;56.30;;;;;;4995060;28;20528;-64
2021/09/24 07:02:47;;;;;;;4.60;1.55;;;22.00;56.30;;;;;;4995056;28;20026;-64
2021/09/24 07:05:13;;;;;;;4.93;1.60;;;22.00;56.30;;;;;;4995298;28;20406;-63
2021/09/24 07:07:41;;;;;;;2.75;1.42;;;21.90;56.30;;;;;;4994947;28;20026;-63
2021/09/24 07:10:07;;;;;;;3.25;1.40;;;22.00;56.30;;;;;;4994929;28;20117;-63
2021/09/24 07:12:34;;;;;;;4.03;1.60;;;22.00;56.30;;;;;;4994816;28;20022;-64
2021/09/24 07:15:00;;;;;;;5.43;1.95;;;22.00;56.30;;;;;;4994819;28;20084;-62
2021/09/24 07:17:25;;;;;;;4.40;1.70;;;22.00;56.40;;;;;;4994189;28;20023;-63
2021/09/24 07:19:51;;;;;;;5.55;2.00;;;22.00;56.40;;;;;;4994242;28;20034;-64
2021/09/24 07:22:16;;;;;;;4.47;1.92;;;22.00;56.30;;;;;;4994644;28;20034;-63
2021/09/24 07:24:42;;;;;;;4.70;2.13;;;22.00;56.40;;;;;;4994599;28;20041;-63
2021/09/24 07:27:08;;;;;;;4.30;1.90;;;22.00;56.30;;;;;;4994547;28;20426;-63
2021/09/24 07:29:33;;;;;;;4.70;1.70;;;22.00;56.40;;;;;;4994610;28;20476;-64
2021/09/24 07:31:59;;;;;;;5.22;2.17;;;22.00;56.40;;;;;;4994530;28;20061;-63
2021/09/24 07:34:25;;;;;;;4.28;1.95;;;22.00;56.40;;;;;;4994485;28;20026;-64
2021/09/24 07:36:50;;;;;;;4.38;2.10;;;22.00;56.30;;;;;;4994370;28;20019;-63
2021/09/24 07:39:38;;;;;;;4.40;2.08;;;22.00;56.40;;;;;;5172756;27;20678;-63
2021/09/24 07:42:04;;;;;;;3.38;1.73;;;22.00;56.40;;;;;;5152113;27;20409;-62
2021/09/24 07:44:30;;;;;;;5.65;2.20;;;22.00;56.40;;;;;;5151851;27;20019;-63
2021/09/24 07:46:55;;;;;;;4.30;2.00;;;22.00;56.40;;;;;;5151767;27;20167;-62
2021/09/24 07:49:21;;;;;;;4.97;2.20;;;22.00;56.40;;;;;;5151701;27;20019;-61
2021/09/24 07:51:46;;;;;;;3.33;1.73;;;22.00;56.40;;;;;;5151936;27;20023;-63
2021/09/24 07:54:12;;;;;;;4.75;2.20;;;22.00;56.30;;;;;;5151507;27;20061;-62
2021/09/24 07:56:37;;;;;;;4.22;1.85;;;22.00;56.40;;;;;;5151601;27;20046;-63
2021/09/24 07:59:03;;;;;;;4.88;2.08;;;22.00;56.30;;;;;;5151603;27;20026;-63
2021/09/24 08:01:29;;;;;;;5.15;1.90;;;22.00;56.40;;;;;;5151372;27;20047;-63
2021/09/24 08:03:55;;;;;;;5.22;2.22;;;22.00;56.40;;;;;;5151411;27;20034;-62
2021/09/24 08:06:21;;;;;;;5.85;2.45;;;22.00;56.40;;;;;;5151533;27;20041;-63
2021/09/24 08:08:47;;;;;;;3.90;1.88;;;22.00;56.40;;;;;;5151284;27;20460;-63
2021/09/24 08:11:13;;;;;;;5.90;2.38;;;22.00;56.40;;;;;;5132743;27;20458;-62
2021/09/24 08:13:39;;;;;;;6.40;2.83;;;22.00;56.40;;;;;;5151390;27;20031;-63
2021/09/24 08:16:05;;;;;;;5.63;2.50;;;22.00;56.40;;;;;;5151245;27;20026;-63
2021/09/24 08:18:30;;;;;;;6.82;2.70;;;22.00;56.40;;;;;;5151061;27;20034;-62
2021/09/24 08:20:59;;;;;;;4.53;2.20;;;22.00;56.40;;;;;;5150925;27;20080;-63
2021/09/24 08:23:24;;;;;;;4.50;2.30;;;22.00;56.40;;;;;;5151077;27;20058;-63
2021/09/24 08:25:50;;;;;;;4.68;2.40;;;22.00;56.40;;;;;;5151157;27;20050;-63
2021/09/24 08:28:16;;;;;;;5.13;2.65;;;22.00;56.40;;;;;;5151247;27;20098;-63
2021/09/24 08:30:42;;;;;;;5.32;2.63;;;22.00;56.40;;;;;;5151185;27;20027;-62
2021/09/24 08:33:08;;;;;;;6.47;2.45;;;22.00;56.40;;;;;;5151066;27;20403;-63
2021/09/24 08:35:34;;;;;;;5.40;2.40;;;22.00;56.40;;;;;;5150739;27;20473;-63
2021/09/24 08:38:00;;;;;;;5.22;2.47;;;22.00;56.40;;;;;;5150574;27;20088;-62
2021/09/24 08:40:29;;;;;;;4.97;2.60;;;22.00;56.50;;;;;;5150730;27;20463;-62
2021/09/24 08:42:55;;;;;;;4.05;2.28;;;22.00;56.50;;;;;;5150999;27;20030;-63
2021/09/24 08:45:23;;;;;;;5.63;2.92;;;22.00;56.40;;;;;;5132083;27;20019;-63
2021/09/24 08:47:57;;;;;;;5.18;2.58;;;22.00;56.40;;;;;;5150229;27;20022;-63
2021/09/24 08:50:24;;;;;;;5.30;2.50;;;22.00;56.50;;;;;;5121598;27;20020;-63
2021/09/24 08:52:50;;;;;;;5.13;2.50;;;22.10;56.50;;;;;;5136742;27;20030;-63
2021/09/24 08:55:16;;;;;;;6.15;3.03;;;22.10;56.50;;;;;;5136681;27;20027;-62
2021/09/24 08:57:43;;;;;;;6.45;2.95;;;22.00;56.50;;;;;;5136511;27;20521;-63
2021/09/24 09:00:10;;;;;;;6.90;2.50;;;22.00;56.40;;;;;;5136578;27;20497;-63
2021/09/24 09:03:05;;;;;;;6.13;2.80;;;22.00;56.40;;;;;;5136535;27;20535;-63
2021/09/24 09:05:38;;;;;;;5.93;2.80;;;22.10;56.50;;;;;;5136674;27;20396;-64
2021/09/24 09:08:24;;;;;;;5.45;2.67;;;22.00;56.50;;;;;;5136543;27;20027;-63
2021/09/24 09:10:55;;;;;;;5.35;2.58;;;22.00;56.50;;;;;;5117936;27;20019;-62
2021/09/24 09:13:22;;;;;;;5.20;2.75;;;22.00;56.40;;;;;;5136233;27;20545;-63
2021/09/24 09:16:04;;;;;;;5.97;2.97;;;22.00;56.50;;;;;;5136389;27;20066;-63
2021/09/24 09:18:32;;;;;;;4.68;2.78;;;22.10;56.50;;;;;;5136132;27;20490;-63
2021/09/24 09:20:58;;;;;;;5.63;2.78;;;22.10;56.40;;;;;;5136145;27;20027;-62
2021/09/24 09:23:26;;;;;;;6.30;2.97;;;22.10;56.50;;;;;;5135925;27;20088;-62
2021/09/24 09:25:55;;;;;;;5.47;2.80;;;22.10;56.50;;;;;;5136275;27;20047;-62
2021/09/24 09:28:48;;;;;;;4.88;2.63;;;22.10;56.50;;;;;;5136032;27;20027;-62
2021/09/24 09:31:23;;;;;;;6.45;2.78;;;22.10;56.50;;;;;;5136029;27;20087;-62
2021/09/24 09:33:50;;;;;;;5.40;2.72;;;22.10;56.50;;;;;;5136081;27;20046;-62
2021/09/24 09:36:32;;;;;;;6.22;3.00;;;22.10;56.50;;;;;;5136098;27;20026;-62
2021/09/24 09:38:58;;;;;;;6.88;3.03;;;22.10;56.50;;;;;;5135605;27;20070;-62
2021/09/24 09:41:25;;;;;;;4.70;2.55;;;22.10;56.50;;;;;;5135703;27;20505;-62
2021/09/24 09:43:59;;;;;;;5.97;2.95;;;22.10;56.50;;;;;;5135608;27;20054;-62
2021/09/24 09:46:30;;;;;;;6.50;2.80;;;22.10;56.50;;;;;;5117175;27;20485;-62
2021/09/24 09:49:07;;;;;;;6.03;2.60;;;22.10;56.50;;;;;;5135792;27;20023;-62
2021/09/24 09:51:36;;;;;;;6.72;2.40;;;22.10;56.50;;;;;;5135523;27;20035;-62
2021/09/24 09:54:03;;;;;;;5.10;2.55;;;22.10;56.50;;;;;;5135587;27;20023;-62
2021/09/24 09:56:37;;;;;;;4.68;2.50;;;22.10;56.50;;;;;;5135739;27;20035;-63
2021/09/24 09:59:21;;;;;;;6.60;3.30;;;22.10;56.50;;;;;;5135475;27;20047;-62
2021/09/24 10:01:47;;;;;;;5.53;2.78;;;22.10;56.40;;;;;;5115957;27;20447;-62
2021/09/24 10:04:13;;;;;;;5.40;2.50;;;22.10;56.50;;;;;;5135385;27;20102;-62
2021/09/24 10:06:40;;;;;;;5.50;2.88;;;22.10;56.50;;;;;;5135650;27;20390;-62
2021/09/24 10:09:06;;;;;;;5.53;2.78;;;22.10;56.50;;;;;;5135093;27;20072;-62
2021/09/24 10:11:36;;;;;;;6.72;2.85;;;22.10;56.50;;;;;;5135195;27;20027;-62
2021/09/24 10:14:11;;;;;;;5.47;3.00;;;22.10;56.50;;;;;;5135358;27;20034;-62
2021/09/24 10:16:45;;;;;;;6.70;2.92;;;22.10;56.50;;;;;;5116551;27;20027;-62
2021/09/24 10:19:12;;;;;;;5.30;2.67;;;22.10;56.50;;;;;;5134937;27;20031;-62
2021/09/24 10:21:37;;;;;;;6.60;3.15;;;22.10;56.50;;;;;;5134840;27;20102;-62
2021/09/24 10:24:04;;;;;;;5.40;3.00;;;22.10;56.50;;;;;;5134865;27;20110;-62
2021/09/24 10:26:34;;;;;;;5.50;2.65;;;22.10;56.50;;;;;;5134926;27;20015;-62
2021/09/24 10:29:06;;;;;;;6.22;3.35;;;22.10;56.60;;;;;;5116422;27;20449;-62
2021/09/24 10:31:37;;;;;;;6.07;2.88;;;22.20;56.50;;;;;;5134741;27;20020;-62
2021/09/24 10:34:04;;;;;;;5.22;2.70;;;22.10;56.50;;;;;;5134876;27;20051;-61
2021/09/24 10:36:49;;;;;;;5.13;2.65;;;22.10;56.50;;;;;;5134646;27;20023;-61
2021/09/24 10:39:30;;;;;;;5.20;2.50;;;22.10;56.50;;;;;;5134492;27;20155;-62
2021/09/24 10:42:28;;;;;;;5.22;2.63;;;22.20;56.50;;;;;;5134799;27;20051;-62
2021/09/24 10:45:02;;;;;;;5.72;2.90;;;22.20;56.50;;;;;;5134795;27;20020;-62
2021/09/24 10:47:45;;;;;;;5.45;2.83;;;22.20;56.50;;;;;;5134511;27;20034;-62
2021/09/24 10:50:38;;;;;;;6.90;3.17;;;22.20;56.50;;;;;;5134475;27;20400;-63
2021/09/24 10:53:10;;;;;;;5.88;3.15;;;22.20;56.50;;;;;;5134521;27;20023;-62
2021/09/24 10:55:52;;;;;;;6.20;3.05;;;22.20;56.50;;;;;;5135953;27;20030;-62
2021/09/24 10:58:26;;;;;;;6.15;2.90;;;22.20;56.50;;;;;;5134373;27;20056;-62
2021/09/24 11:01:08;;;;;;;5.72;2.80;;;22.20;56.50;;;;;;5134320;27;20031;-62
2021/09/24 11:03:52;;;;;;;5.72;2.85;;;22.20;56.50;;;;;;5134084;27;20482;-62
2021/09/24 11:06:34;;;;;;;6.10;2.78;;;22.20;56.50;;;;;;5134351;27;20059;-63
2021/09/24 11:09:00;;;;;;;4.90;2.63;;;22.20;56.50;;;;;;5134205;27;20031;-62
2021/09/24 11:11:34;;;;;;;6.75;2.85;;;22.20;56.50;;;;;;5133989;27;20172;-63
2021/09/24 11:14:19;;;;;;;6.10;2.80;;;22.20;56.50;;;;;;5133994;27;20035;-63
2021/09/24 11:16:47;;;;;;;5.68;2.90;;;22.20;56.50;;;;;;5134173;27;20083;-62
2021/09/24 11:19:30;;;;;;;5.38;2.63;;;22.20;56.50;;;;;;5133945;27;20083;-63
2021/09/24 11:21:58;;;;;;;5.10;2.75;;;22.30;56.50;;;;;;5133848;27;20375;-62
2021/09/24 11:24:39;;;;;;;5.82;3.08;;;22.20;56.40;;;;;;5133868;27;20024;-61
2021/09/24 11:27:09;;;;;;;4.90;2.70;;;22.20;56.40;;;;;;5115492;27;20382;-63
2021/09/24 11:29:39;;;;;;;5.47;2.80;;;22.30;56.30;;;;;;5133855;27;20023;-62
2021/09/24 11:32:09;;;;;;;6.85;3.15;;;22.30;56.30;;;;;;5099042;28;20378;-62
2021/09/24 11:34:43;;;;;;;5.00;2.65;;;22.30;56.30;;;;;;5133849;27;20119;-61
2021/09/24 11:37:16;;;;;;;5.80;2.70;;;22.40;56.30;;;;;;5133831;28;20026;-62
2021/09/24 11:39:41;;;;;;;5.35;2.90;;;22.40;56.30;;;;;;5133681;28;20051;-61
2021/09/24 11:42:10;;;;;;;5.47;2.72;;;22.40;56.30;;;;;;5133970;28;20478;-63
2021/09/24 11:44:41;;;;;;;5.68;2.70;;;22.40;56.40;;;;;;5133787;28;20478;-64
2021/09/24 11:47:35;;;;;;;5.25;2.60;;;22.40;56.30;;;;;;5133682;28;20463;-63
2021/09/24 11:50:06;;;;;;;;;;;22.40;56.40;;;;;;5134213;28;20524;-61
2021/09/24 11:52:49;;;;;;;5.35;2.78;;;22.40;56.30;;;;;;5133740;28;19926;-63
2021/09/24 11:55:23;;;;;;;6.32;3.00;;;22.40;56.30;;;;;;5133656;28;20420;-64
2021/09/24 11:57:56;;;;;;;;;;;22.40;56.40;;;;;;5133950;28;20535;-63
2021/09/24 12:00:23;;;;;;;5.97;2.88;;;22.40;56.40;;;;;;5133780;28;19961;-63
2021/09/24 12:02:49;;;;;;;5.53;2.67;;;22.40;56.30;;;;;;5133791;28;20038;-63
2021/09/24 12:05:14;;;;;;;5.43;2.88;;;22.40;56.30;;;;;;5133562;28;20023;-64
2021/09/24 12:07:49;;;;;;;6.45;2.90;;;22.40;56.40;;;;;;5133444;28;20019;-63
2021/09/24 12:10:16;;;;;;;4.88;2.50;;;22.40;56.40;;;;;;5133592;28;20054;-63
2021/09/24 12:12:44;;;;;;;5.28;2.83;;;22.40;56.40;;;;;;5133395;28;20019;-63
2021/09/24 12:15:10;;;;;;;5.60;3.00;;;22.40;56.30;;;;;;5133519;28;20111;-63
2021/09/24 12:17:35;;;;;;;6.30;3.22;;;22.50;56.40;;;;;;5133783;28;20484;-63
2021/09/24 12:20:01;;;;;;;6.10;2.85;;;22.40;56.30;;;;;;5114776;28;20066;-63
2021/09/24 12:22:27;;;;;;;4.53;2.33;;;22.40;56.30;;;;;;5133430;28;20054;-64
2021/09/24 12:24:52;;;;;;;5.43;2.88;;;22.40;56.40;;;;;;5134552;27;20023;-63
2021/09/24 12:27:29;;;;;;;5.18;2.50;;;22.40;56.40;;;;;;5119034;27;20023;-63
2021/09/24 12:30:11;;;;;;;6.28;2.70;;;22.50;56.40;;;;;;5137363;27;20061;-62
2021/09/24 12:32:37;;;;;;;4.82;2.55;;;22.50;56.30;;;;;;5137487;27;20030;-61
2021/09/24 12:35:04;;;;;;;5.60;2.60;;;22.50;56.30;;;;;;5137113;27;20023;-63
2021/09/24 12:37:42;;;;;;;4.80;2.28;;;22.50;56.20;;;;;;5136641;27;20538;-62
2021/09/24 12:40:13;;;;;;;5.88;2.88;;;22.50;56.30;;;;;;5137260;27;20065;-63
2021/09/24 12:42:41;;;;;;;4.95;2.45;;;22.50;56.30;;;;;;5136905;27;20019;-63
2021/09/24 12:45:10;;;;;;;5.90;3.03;;;22.50;56.30;;;;;;5136747;27;20023;-61
2021/09/24 12:47:37;;;;;;;5.30;2.58;;;22.50;56.30;;;;;;5136847;27;20019;-62
2021/09/24 12:50:06;;;;;;;4.00;2.20;;;22.50;56.30;;;;;;5136957;27;20388;-62
2021/09/24 12:52:33;;;;;;;5.45;2.45;;;22.50;56.20;;;;;;5136734;27;20072;-63